Time;durP1;ratioP1;P1;durP2;ratioP2;P2;SDS_P1;SDS_P2;PMS_P1;PMS_P2;Temp;Humidity;BMP_temperature;BMP_pressure;BME280_temperature;BME280_humidity;BME280_pressure;Samples;Min_cycle;Max_cycle;Signal;HPM_P1;HPM_P2
2022/10/12 00:00:06;;;;;;;7.23;3.70;;;9.50;99.90;;;;;;5127405;27;20703;-71
2022/10/12 00:02:34;;;;;;;7.23;3.37;;;9.50;99.90;;;;;;5128009;27;20230;-71
2022/10/12 00:05:01;;;;;;;7.57;3.70;;;9.50;99.90;;;;;;5131575;27;20209;-71
2022/10/12 00:07:27;;;;;;;4.47;3.73;;;9.50;99.90;;;;;;5131529;27;20573;-71
2022/10/12 00:09:54;;;;;;;5.23;3.90;;;9.50;99.90;;;;;;5131796;27;20205;-71
2022/10/12 00:12:21;;;;;;;4.57;3.37;;;9.50;99.90;;;;;;5131431;27;20300;-71
2022/10/12 00:14:48;;;;;;;5.73;3.50;;;9.50;99.90;;;;;;5131464;27;20193;-70
2022/10/12 00:17:14;;;;;;;3.97;2.90;;;9.50;99.90;;;;;;5131258;27;20205;-70
2022/10/12 00:19:42;;;;;;;5.90;2.83;;;9.50;99.90;;;;;;5131537;27;20208;-70
2022/10/12 00:22:09;;;;;;;4.20;2.70;;;9.50;99.90;;;;;;5120874;27;20234;-71
2022/10/12 00:24:36;;;;;;;6.50;2.70;;;9.50;99.90;;;;;;5120223;27;20246;-70
2022/10/12 00:27:03;;;;;;;4.10;2.80;;;9.60;99.90;;;;;;5123516;27;20214;-70
2022/10/12 00:29:30;;;;;;;3.43;2.60;;;9.60;99.90;;;;;;5129511;27;20570;-70
2022/10/12 00:31:56;;;;;;;5.83;3.07;;;9.60;99.90;;;;;;5125418;27;20206;-70
2022/10/12 00:34:23;;;;;;;3.40;2.40;;;9.60;99.90;;;;;;5110308;27;20211;-69
2022/10/12 00:36:51;;;;;;;3.40;2.43;;;9.60;99.90;;;;;;5110112;27;20634;-71
2022/10/12 00:39:18;;;;;;;5.00;3.00;;;9.60;99.90;;;;;;5110260;28;20202;-71
2022/10/12 00:41:45;;;;;;;4.73;2.90;;;9.60;99.90;;;;;;5126876;27;20229;-71
2022/10/12 00:44:34;;;;;;;5.97;2.87;;;9.50;99.90;;;;;;5130846;27;20237;-71
2022/10/12 00:47:02;;;;;;;5.77;3.17;;;9.50;99.90;;;;;;5130770;27;20207;-70
2022/10/12 00:49:29;;;;;;;3.73;2.63;;;9.50;99.90;;;;;;5118630;27;20206;-70
2022/10/12 00:52:00;;;;;;;5.70;3.00;;;9.40;99.90;;;;;;5118508;27;20217;-70
2022/10/12 00:54:32;;;;;;;4.87;3.00;;;9.40;99.90;;;;;;5130584;27;20194;-70
2022/10/12 00:57:02;;;;;;;4.53;2.73;;;9.30;99.90;;;;;;5130187;27;20190;-70
2022/10/12 00:59:33;;;;;;;6.33;2.97;;;9.30;99.90;;;;;;5130600;27;20287;-70
2022/10/12 01:02:00;;;;;;;7.10;3.00;;;9.20;99.90;;;;;;5129758;27;20233;-70
2022/10/12 01:04:26;;;;;;;5.27;3.47;;;9.20;99.90;;;;;;5130302;27;20276;-70
2022/10/12 01:06:53;;;;;;;3.43;2.97;;;9.10;99.90;;;;;;5130204;27;20201;-69
2022/10/12 01:09:22;;;;;;;4.57;3.23;;;9.10;99.90;;;;;;5130253;27;20205;-69
2022/10/12 01:11:49;;;;;;;3.87;2.77;;;9.10;99.90;;;;;;5129923;27;20678;-71
2022/10/12 01:14:17;;;;;;;3.90;2.97;;;9.00;99.90;;;;;;5112409;27;20337;-69
2022/10/12 01:16:48;;;;;;;3.40;3.10;;;9.00;99.90;;;;;;5129115;27;20205;-69
2022/10/12 01:19:41;;;;;;;3.57;2.83;;;9.00;99.90;;;;;;5129852;27;20190;-70
2022/10/12 01:22:11;;;;;;;4.43;3.20;;;9.00;99.90;;;;;;5129804;27;20233;-69
2022/10/12 01:24:50;;;;;;;5.93;3.00;;;8.90;99.90;;;;;;5120727;27;20198;-71
2022/10/12 01:27:42;;;;;;;3.93;3.00;;;8.90;99.90;;;;;;5109139;28;20197;-69
2022/10/12 01:30:18;;;;;;;5.70;2.70;;;8.80;99.90;;;;;;5109447;28;20208;-70
2022/10/12 01:33:28;;;;;;;4.63;2.70;;;8.80;99.90;;;;;;5109502;28;20194;-69
2022/10/12 01:36:04;;;;;;;3.20;2.90;;;8.80;99.90;;;;;;5122400;27;20221;-69
2022/10/12 01:38:40;;;;;;;4.03;2.47;;;8.80;99.90;;;;;;5130093;27;20197;-69
2022/10/12 01:41:12;;;;;;;5.67;2.70;;;8.80;99.90;;;;;;5129434;27;20291;-69
2022/10/12 01:43:42;;;;;;;4.27;2.83;;;8.80;99.90;;;;;;5129475;27;20640;-69
2022/10/12 01:46:45;;;;;;;3.17;2.40;;;8.70;99.90;;;;;;5129342;27;20515;-69
2022/10/12 01:49:14;;;;;;;3.57;2.30;;;8.70;99.90;;;;;;5120040;27;20205;-70
2022/10/12 01:51:53;;;;;;;2.70;2.27;;;8.70;99.90;;;;;;5108370;28;20987;-70
2022/10/12 01:54:29;;;;;;;3.90;2.70;;;8.60;99.90;;;;;;5108791;28;20194;-70
2022/10/12 01:57:01;;;;;;;4.13;2.47;;;8.60;99.90;;;;;;5108383;28;20194;-69
2022/10/12 01:59:38;;;;;;;3.60;2.40;;;8.60;99.90;;;;;;5108901;28;20187;-69
2022/10/12 02:02:17;;;;;;;3.47;2.63;;;8.60;99.90;;;;;;5108634;28;20225;-69
2022/10/12 02:04:52;;;;;;;6.07;2.73;;;8.60;99.90;;;;;;5108918;28;20193;-69
2022/10/12 02:07:26;;;;;;;5.50;2.80;;;8.60;99.90;;;;;;5108776;28;20189;-69
2022/10/12 02:09:57;;;;;;;4.23;3.00;;;8.60;99.90;;;;;;5120280;27;20216;-69
2022/10/12 02:12:26;;;;;;;2.73;2.53;;;8.50;99.90;;;;;;5128809;27;20201;-69
2022/10/12 02:14:57;;;;;;;3.93;2.30;;;8.50;99.90;;;;;;5129256;27;20208;-70
2022/10/12 02:17:25;;;;;;;2.60;2.40;;;8.50;99.90;;;;;;5129230;27;20194;-69
2022/10/12 02:19:55;;;;;;;4.03;2.30;;;8.60;99.90;;;;;;5127889;27;20208;-69
2022/10/12 02:22:24;;;;;;;3.33;2.70;;;8.50;99.90;;;;;;5120341;27;20218;-69
2022/10/12 02:24:54;;;;;;;2.97;2.30;;;8.50;99.90;;;;;;5127979;27;20286;-69
2022/10/12 02:27:21;;;;;;;3.77;2.40;;;8.50;99.90;;;;;;5112917;27;20202;-68
2022/10/12 02:29:49;;;;;;;3.37;2.47;;;8.40;99.90;;;;;;5105252;28;20202;-68
2022/10/12 02:32:20;;;;;;;4.70;2.20;;;8.40;99.90;;;;;;5116194;27;20213;-68
2022/10/12 02:34:54;;;;;;;2.77;2.50;;;8.40;99.90;;;;;;5115699;27;20245;-68
2022/10/12 02:37:30;;;;;;;3.33;2.43;;;8.40;99.90;;;;;;5114806;27;20201;-68
2022/10/12 02:40:03;;;;;;;4.13;2.67;;;8.50;99.90;;;;;;5124173;27;20640;-68
2022/10/12 02:42:33;;;;;;;3.17;2.20;;;8.50;99.90;;;;;;5123955;27;20244;-68
2022/10/12 02:45:03;;;;;;;3.87;2.37;;;8.40;99.90;;;;;;5124862;27;20197;-68
2022/10/12 02:47:32;;;;;;;4.50;2.70;;;8.40;99.90;;;;;;5124621;27;20189;-68
2022/10/12 02:50:01;;;;;;;3.93;2.10;;;8.40;99.90;;;;;;5123954;27;20201;-69
2022/10/12 02:52:29;;;;;;;3.27;2.77;;;8.40;99.90;;;;;;5123670;27;20667;-68
2022/10/12 02:54:56;;;;;;;3.17;2.87;;;8.40;99.90;;;;;;5124284;27;20696;-68
2022/10/12 02:57:23;;;;;;;4.93;2.50;;;8.50;99.90;;;;;;5124279;27;20208;-68
2022/10/12 02:59:49;;;;;;;4.03;2.00;;;8.40;99.90;;;;;;5124373;27;20239;-68
2022/10/12 03:02:16;;;;;;;3.33;2.00;;;8.50;99.90;;;;;;5124303;27;20939;-68
2022/10/12 03:04:43;;;;;;;2.27;2.17;;;8.50;99.90;;;;;;5124915;27;20201;-68
2022/10/12 03:07:11;;;;;;;4.47;1.90;;;8.50;99.90;;;;;;5107519;27;20201;-68
2022/10/12 03:09:38;;;;;;;2.43;2.23;;;8.50;99.90;;;;;;5108320;28;20210;-68
2022/10/12 03:12:05;;;;;;;3.73;2.20;;;8.50;99.90;;;;;;5107408;28;20206;-68
2022/10/12 03:14:33;;;;;;;2.57;2.37;;;8.40;99.90;;;;;;5107773;28;20217;-68
2022/10/12 03:17:00;;;;;;;3.23;2.33;;;8.40;99.90;;;;;;5107322;28;20210;-68
2022/10/12 03:19:27;;;;;;;4.13;2.13;;;8.40;99.90;;;;;;5107884;28;20542;-68
2022/10/12 03:21:54;;;;;;;2.53;2.07;;;8.40;99.90;;;;;;5123631;28;20209;-68
2022/10/12 03:24:22;;;;;;;2.90;2.30;;;8.40;99.90;;;;;;5128281;27;20201;-68
2022/10/12 03:26:49;;;;;;;3.03;2.37;;;8.30;99.90;;;;;;5128225;27;20210;-68
2022/10/12 03:29:15;;;;;;;2.33;2.13;;;8.30;99.90;;;;;;5127914;27;20202;-68
2022/10/12 03:31:42;;;;;;;2.97;2.47;;;8.20;99.90;;;;;;5127975;27;20939;-68
2022/10/12 03:34:09;;;;;;;2.90;2.40;;;8.20;99.90;;;;;;5127566;27;20312;-68
2022/10/12 03:36:36;;;;;;;2.33;2.13;;;8.20;99.90;;;;;;5127847;27;20679;-68
2022/10/12 03:39:03;;;;;;;3.00;2.20;;;8.20;99.90;;;;;;5130720;27;20237;-68
2022/10/12 03:41:31;;;;;;;4.40;2.30;;;8.20;99.90;;;;;;5132056;27;20209;-68
2022/10/12 03:43:57;;;;;;;1.93;1.83;;;8.10;99.90;;;;;;5132238;27;20220;-68
2022/10/12 03:46:24;;;;;;;2.63;2.10;;;8.10;99.90;;;;;;5131800;27;20572;-68
2022/10/12 03:48:51;;;;;;;3.93;2.27;;;8.10;99.90;;;;;;5125705;27;20199;-68
2022/10/12 03:51:18;;;;;;;2.27;1.80;;;8.10;99.90;;;;;;5114014;27;20213;-68
2022/10/12 03:53:44;;;;;;;8.43;2.30;;;8.00;99.90;;;;;;5131974;27;20235;-68
2022/10/12 03:56:11;;;;;;;4.40;2.50;;;8.00;99.90;;;;;;5131670;27;20658;-68
2022/10/12 03:58:39;;;;;;;5.40;2.80;;;8.10;99.90;;;;;;5131787;27;20218;-68
2022/10/12 04:01:06;;;;;;;5.50;2.97;;;8.10;99.90;;;;;;5131469;27;20235;-68
2022/10/12 04:03:33;;;;;;;4.93;2.40;;;8.00;99.90;;;;;;5131703;27;20209;-68
2022/10/12 04:05:59;;;;;;;3.73;2.83;;;8.00;99.90;;;;;;5131371;27;20205;-68
2022/10/12 04:08:27;;;;;;;6.57;2.80;;;8.00;99.90;;;;;;5131348;27;20209;-69
2022/10/12 04:10:54;;;;;;;4.97;2.73;;;8.00;99.90;;;;;;5111394;27;20206;-68
2022/10/12 04:13:21;;;;;;;5.30;2.60;;;8.00;99.90;;;;;;5129546;27;20245;-68
2022/10/12 04:15:49;;;;;;;4.90;2.37;;;8.10;99.90;;;;;;5131629;27;20610;-68
2022/10/12 04:18:16;;;;;;;3.83;3.00;;;8.10;99.90;;;;;;5131195;27;20221;-68
2022/10/12 04:20:43;;;;;;;3.23;2.60;;;8.00;99.90;;;;;;5131518;27;20607;-68
2022/10/12 04:23:10;;;;;;;3.67;2.30;;;8.00;99.90;;;;;;5131456;27;20600;-68
2022/10/12 04:25:37;;;;;;;5.80;2.80;;;7.90;99.90;;;;;;5131089;27;20216;-68
2022/10/12 04:28:03;;;;;;;5.33;2.63;;;7.90;99.90;;;;;;5131288;27;21004;-68
2022/10/12 04:30:31;;;;;;;6.03;2.70;;;7.90;99.90;;;;;;5131609;27;20569;-68
2022/10/12 04:33:00;;;;;;;5.27;2.63;;;7.80;99.90;;;;;;5130989;27;20578;-68
2022/10/12 04:35:26;;;;;;;2.40;2.20;;;7.80;99.90;;;;;;5118083;27;20596;-68
2022/10/12 04:37:53;;;;;;;2.80;2.60;;;7.80;99.90;;;;;;5110773;28;20206;-68
2022/10/12 04:40:20;;;;;;;2.87;2.40;;;7.70;99.90;;;;;;5110149;28;20213;-68
2022/10/12 04:42:46;;;;;;;2.57;2.23;;;7.70;99.90;;;;;;5110676;28;20552;-68
2022/10/12 04:45:13;;;;;;;3.00;2.63;;;7.70;99.90;;;;;;5110321;28;20213;-68
2022/10/12 04:47:40;;;;;;;3.17;2.60;;;7.70;99.90;;;;;;5110593;28;20202;-68
2022/10/12 04:50:09;;;;;;;3.07;2.80;;;7.80;99.90;;;;;;5109798;28;20577;-68
2022/10/12 04:52:35;;;;;;;3.10;2.70;;;7.80;99.90;;;;;;5124381;27;20224;-68
2022/10/12 04:55:02;;;;;;;4.83;2.83;;;7.80;99.90;;;;;;5130564;27;20679;-68
2022/10/12 04:57:29;;;;;;;2.97;2.67;;;7.70;99.90;;;;;;5129859;27;20201;-68
2022/10/12 04:59:56;;;;;;;3.30;2.50;;;7.70;99.90;;;;;;5130684;27;20209;-68
2022/10/12 05:02:23;;;;;;;2.90;2.60;;;7.70;99.90;;;;;;5130612;27;20197;-68
2022/10/12 05:04:50;;;;;;;3.67;2.63;;;7.70;99.90;;;;;;5128492;27;20217;-68
2022/10/12 05:07:18;;;;;;;3.17;2.83;;;7.70;99.90;;;;;;5129944;27;20552;-68
2022/10/12 05:09:47;;;;;;;2.80;2.50;;;7.70;99.90;;;;;;5119611;27;20214;-68
2022/10/12 05:12:13;;;;;;;4.27;2.67;;;7.70;99.90;;;;;;5109806;28;20210;-68
2022/10/12 05:14:40;;;;;;;3.53;2.80;;;7.70;99.90;;;;;;5109623;28;20230;-68
2022/10/12 05:17:07;;;;;;;3.17;2.87;;;7.60;99.90;;;;;;5109412;28;20206;-68
2022/10/12 05:19:33;;;;;;;2.97;2.47;;;7.60;99.90;;;;;;5109839;28;20209;-68
2022/10/12 05:22:00;;;;;;;3.17;2.87;;;7.60;99.90;;;;;;5117969;27;20678;-68
2022/10/12 05:24:28;;;;;;;3.87;2.80;;;7.50;99.90;;;;;;5130168;27;20222;-68
2022/10/12 05:26:56;;;;;;;4.47;2.70;;;7.50;99.90;;;;;;5129533;27;20208;-68
2022/10/12 05:29:23;;;;;;;5.10;2.57;;;7.50;99.90;;;;;;5129897;27;20690;-68
2022/10/12 05:31:49;;;;;;;2.90;2.40;;;7.50;99.90;;;;;;5129589;27;20667;-68
2022/10/12 05:34:16;;;;;;;2.70;2.50;;;7.60;99.90;;;;;;5129510;27;20225;-68
2022/10/12 05:36:43;;;;;;;4.23;2.77;;;7.50;99.90;;;;;;5130135;27;20218;-68
2022/10/12 05:39:12;;;;;;;3.30;2.50;;;7.50;99.90;;;;;;5129659;27;20201;-68
2022/10/12 05:41:40;;;;;;;3.53;2.50;;;7.50;99.90;;;;;;5129710;27;20205;-68
2022/10/12 05:44:07;;;;;;;5.80;3.00;;;7.50;99.90;;;;;;5129614;27;20233;-68
2022/10/12 05:46:34;;;;;;;6.20;2.80;;;7.50;99.90;;;;;;5129812;27;20283;-68
2022/10/12 05:49:01;;;;;;;3.83;2.80;;;7.50;99.90;;;;;;5121534;27;20213;-68
2022/10/12 05:51:27;;;;;;;3.50;2.63;;;7.50;99.90;;;;;;5108658;28;20217;-68
2022/10/12 05:53:54;;;;;;;2.90;2.70;;;7.50;99.90;;;;;;5112218;27;20605;-68
2022/10/12 05:56:21;;;;;;;4.03;2.70;;;7.60;99.90;;;;;;5129428;27;20216;-68
2022/10/12 05:58:49;;;;;;;2.93;2.73;;;7.60;99.90;;;;;;5129383;27;20201;-68
2022/10/12 06:01:16;;;;;;;4.93;2.70;;;7.60;99.90;;;;;;5128479;27;21045;-68
2022/10/12 06:03:42;;;;;;;2.97;2.73;;;7.60;99.90;;;;;;5129162;27;20210;-68
2022/10/12 06:06:10;;;;;;;4.37;2.60;;;7.60;99.90;;;;;;5108377;28;20214;-69
2022/10/12 06:08:36;;;;;;;4.17;2.60;;;7.70;99.90;;;;;;5108910;28;20206;-68
2022/10/12 06:11:04;;;;;;;4.83;2.93;;;7.70;99.90;;;;;;5108469;28;20246;-68
2022/10/12 06:13:30;;;;;;;4.83;2.60;;;7.80;99.90;;;;;;5108619;28;20229;-68
2022/10/12 06:16:01;;;;;;;3.90;2.67;;;7.80;99.90;;;;;;5108588;28;20209;-69
2022/10/12 06:18:28;;;;;;;3.13;2.37;;;7.80;99.90;;;;;;5108359;28;20303;-68
2022/10/12 06:20:55;;;;;;;6.30;2.60;;;7.90;99.90;;;;;;5108317;28;20214;-68
2022/10/12 06:23:22;;;;;;;3.17;2.13;;;8.00;99.90;;;;;;5108712;28;20297;-68
2022/10/12 06:25:50;;;;;;;4.73;2.63;;;8.00;99.90;;;;;;5108310;28;20202;-69
2022/10/12 06:28:19;;;;;;;6.60;2.70;;;8.00;99.90;;;;;;5108260;28;20237;-69
2022/10/12 06:30:46;;;;;;;4.77;2.70;;;8.10;99.90;;;;;;5108561;28;20210;-69
2022/10/12 06:33:14;;;;;;;4.50;2.47;;;8.20;99.90;;;;;;5108191;28;20218;-69
2022/10/12 06:35:41;;;;;;;4.23;2.60;;;8.20;99.90;;;;;;5123531;27;20225;-69
2022/10/12 06:38:07;;;;;;;6.57;2.90;;;8.30;99.90;;;;;;5128371;27;20198;-69
2022/10/12 06:40:34;;;;;;;4.73;2.60;;;8.30;99.90;;;;;;5128600;27;20239;-70
2022/10/12 06:43:01;;;;;;;4.03;3.03;;;8.40;99.90;;;;;;5128587;27;20570;-69
2022/10/12 06:45:28;;;;;;;6.20;2.67;;;8.40;99.90;;;;;;5128515;27;20297;-69
2022/10/12 06:47:55;;;;;;;5.27;2.80;;;8.50;99.90;;;;;;5128373;27;20298;-69
2022/10/12 06:50:23;;;;;;;4.73;2.70;;;8.50;99.90;;;;;;5113766;27;20193;-70
2022/10/12 06:52:50;;;;;;;6.70;3.23;;;8.60;99.90;;;;;;5112541;27;20210;-69
2022/10/12 06:55:17;;;;;;;6.93;2.80;;;8.60;99.90;;;;;;5107481;28;20743;-70
2022/10/12 06:57:43;;;;;;;5.50;2.30;;;8.60;99.90;;;;;;5111896;27;20197;-69
2022/10/12 07:00:12;;;;;;;4.10;2.50;;;8.70;99.90;;;;;;5127886;27;20609;-70
2022/10/12 07:02:39;;;;;;;5.10;2.57;;;8.70;99.90;;;;;;5114662;27;20210;-69
2022/10/12 07:05:07;;;;;;;7.40;2.97;;;8.70;99.90;;;;;;5108113;28;20213;-69
2022/10/12 07:07:36;;;;;;;5.23;2.40;;;8.80;99.90;;;;;;5128225;27;20288;-69
2022/10/12 07:10:05;;;;;;;5.00;2.40;;;8.80;99.90;;;;;;5128535;27;20205;-69
2022/10/12 07:12:32;;;;;;;6.40;2.33;;;8.90;99.90;;;;;;5128284;27;20650;-69
2022/10/12 07:14:59;;;;;;;5.87;2.40;;;9.00;99.90;;;;;;5132459;27;20225;-69
2022/10/12 07:17:25;;;;;;;6.00;2.40;;;9.00;99.90;;;;;;5133017;27;20205;-70
2022/10/12 07:19:52;;;;;;;3.03;2.27;;;9.10;99.90;;;;;;5132691;27;20197;-70
2022/10/12 07:22:19;;;;;;;6.83;2.70;;;9.20;99.90;;;;;;5120755;27;20214;-69
2022/10/12 07:24:47;;;;;;;7.50;2.50;;;9.30;99.90;;;;;;5112066;28;20202;-70
2022/10/12 07:27:14;;;;;;;7.07;2.70;;;9.30;99.90;;;;;;5111173;28;20210;-69
2022/10/12 07:29:41;;;;;;;4.20;2.20;;;9.40;99.90;;;;;;5111728;28;20221;-70
2022/10/12 07:32:08;;;;;;;6.37;2.20;;;9.50;99.90;;;;;;5111534;28;20837;-70
2022/10/12 07:34:35;;;;;;;6.30;2.70;;;9.60;99.90;;;;;;5116905;27;20229;-69
2022/10/12 07:37:02;;;;;;;3.57;2.60;;;9.70;99.90;;;;;;5131483;27;20213;-70
2022/10/12 07:39:29;;;;;;;4.43;2.53;;;9.70;99.90;;;;;;5131847;27;20216;-69
2022/10/12 07:41:57;;;;;;;9.07;2.83;;;9.90;99.90;;;;;;5131770;27;20212;-69
2022/10/12 07:44:24;;;;;;;4.17;2.43;;;9.90;99.90;;;;;;5131505;27;20300;-69
2022/10/12 07:46:51;;;;;;;13.40;2.77;;;10.00;99.90;;;;;;5131490;27;20205;-70
2022/10/12 07:49:18;;;;;;;9.70;2.80;;;10.10;99.90;;;;;;5121115;27;20205;-69
2022/10/12 07:51:46;;;;;;;8.03;2.77;;;10.20;99.90;;;;;;5118075;27;20248;-69
2022/10/12 07:54:13;;;;;;;4.87;2.37;;;10.20;99.90;;;;;;5131164;27;20237;-70
2022/10/12 07:56:39;;;;;;;4.33;2.50;;;10.30;99.90;;;;;;5131640;27;20201;-70
2022/10/12 07:59:08;;;;;;;5.90;2.70;;;10.40;99.90;;;;;;5115783;27;20221;-70
2022/10/12 08:01:35;;;;;;;5.40;2.50;;;10.40;99.90;;;;;;5110881;28;20230;-69
2022/10/12 08:04:01;;;;;;;6.00;2.80;;;10.40;99.90;;;;;;5110924;28;20700;-70
2022/10/12 08:06:31;;;;;;;3.93;2.87;;;10.50;99.90;;;;;;5111280;28;20212;-69
2022/10/12 08:08:59;;;;;;;8.17;2.80;;;10.60;99.90;;;;;;5111417;28;20198;-69
2022/10/12 08:11:26;;;;;;;7.10;2.90;;;10.60;99.90;;;;;;5111030;28;20217;-70
2022/10/12 08:13:53;;;;;;;4.27;2.70;;;10.70;99.90;;;;;;5111154;27;20230;-69
2022/10/12 08:16:21;;;;;;;4.13;2.17;;;10.80;99.90;;;;;;5111051;28;20202;-70
2022/10/12 08:18:48;;;;;;;6.83;2.77;;;10.80;99.90;;;;;;5111168;28;20206;-69
2022/10/12 08:21:16;;;;;;;6.13;3.20;;;10.90;99.90;;;;;;5110870;28;20206;-70
2022/10/12 08:23:45;;;;;;;7.83;2.83;;;11.00;99.90;;;;;;5110323;28;20206;-69
2022/10/12 08:26:12;;;;;;;3.90;2.43;;;11.10;99.90;;;;;;5110442;28;20214;-69
2022/10/12 08:28:39;;;;;;;5.23;3.03;;;11.10;99.90;;;;;;5110721;27;20204;-70
2022/10/12 08:31:08;;;;;;;8.70;2.97;;;11.20;99.90;;;;;;5110696;28;20229;-69
2022/10/12 08:33:36;;;;;;;4.40;2.23;;;11.30;99.90;;;;;;5110564;28;20212;-70
2022/10/12 08:36:04;;;;;;;8.00;2.80;;;11.40;99.90;;;;;;5128533;27;20201;-70
2022/10/12 08:38:31;;;;;;;2.83;2.53;;;11.60;99.90;;;;;;5131307;27;20206;-69
2022/10/12 08:41:04;;;;;;;6.47;2.83;;;11.60;99.90;;;;;;5130520;27;20660;-70
2022/10/12 08:43:45;;;;;;;5.13;2.20;;;11.70;99.90;;;;;;5130895;27;20224;-70
2022/10/12 08:46:12;;;;;;;5.10;2.97;;;11.90;99.90;;;;;;5130845;27;20194;-70
2022/10/12 08:48:47;;;;;;;8.00;2.77;;;12.00;99.90;;;;;;5125837;27;20204;-70
2022/10/12 08:51:20;;;;;;;10.03;2.80;;;12.10;99.90;;;;;;5110332;28;20205;-70
2022/10/12 08:53:51;;;;;;;5.40;2.70;;;12.20;99.90;;;;;;5121758;27;20200;-70
2022/10/12 08:56:19;;;;;;;6.03;2.60;;;12.30;99.90;;;;;;5130389;27;20194;-70
2022/10/12 08:58:47;;;;;;;9.83;2.50;;;12.30;99.90;;;;;;5130411;27;20201;-70
2022/10/12 09:01:24;;;;;;;4.50;2.40;;;12.30;99.90;;;;;;5130666;27;20608;-70
2022/10/12 09:04:06;;;;;;;5.50;2.53;;;12.40;99.90;;;;;;5130749;27;20197;-70
2022/10/12 09:06:39;;;;;;;6.37;2.87;;;12.50;99.90;;;;;;5130158;27;20197;-70
2022/10/12 09:09:24;;;;;;;7.03;2.70;;;12.60;99.90;;;;;;5129961;27;20206;-70
2022/10/12 09:12:01;;;;;;;5.40;2.70;;;12.60;99.90;;;;;;5130102;27;20202;-70
2022/10/12 09:14:32;;;;;;;10.80;2.60;;;12.70;99.90;;;;;;5130015;27;20205;-69
2022/10/12 09:17:01;;;;;;;5.90;2.50;;;12.80;99.90;;;;;;5130377;27;20201;-70
2022/10/12 09:19:35;;;;;;;4.87;2.33;;;12.90;99.90;;;;;;5130614;27;20216;-70
2022/10/12 09:22:04;;;;;;;3.63;2.33;;;13.00;99.90;;;;;;5120795;27;20271;-70
2022/10/12 09:24:35;;;;;;;4.50;2.20;;;13.10;99.90;;;;;;5109622;28;20213;-70
2022/10/12 09:27:13;;;;;;;7.57;2.40;;;13.10;99.90;;;;;;5109292;28;20285;-70
2022/10/12 09:29:40;;;;;;;4.20;2.40;;;13.20;99.90;;;;;;5109332;28;20637;-70
2022/10/12 09:32:37;;;;;;;6.40;2.60;;;13.20;99.90;;;;;;5109559;28;20202;-70
2022/10/12 09:35:07;;;;;;;6.50;2.23;;;13.30;99.90;;;;;;5118304;27;20225;-70
2022/10/12 09:37:35;;;;;;;8.13;2.77;;;13.40;99.90;;;;;;5129635;27;20208;-70
2022/10/12 09:40:03;;;;;;;9.70;2.90;;;13.50;99.90;;;;;;5129461;27;20209;-69
2022/10/12 09:42:31;;;;;;;9.07;2.90;;;13.50;99.90;;;;;;5129595;27;20584;-70
2022/10/12 09:45:02;;;;;;;5.00;2.37;;;13.60;99.90;;;;;;5129798;27;20206;-70
2022/10/12 09:47:31;;;;;;;4.83;2.13;;;13.60;99.90;;;;;;5129504;27;20607;-67
2022/10/12 09:50:01;;;;;;;6.73;2.30;;;13.70;99.90;;;;;;5122357;27;20298;-67
2022/10/12 09:52:37;;;;;;;6.63;2.40;;;13.70;99.90;;;;;;5121775;27;20209;-67
2022/10/12 09:55:07;;;;;;;4.20;1.90;;;13.80;99.90;;;;;;5128989;27;20725;-67
2022/10/12 09:57:36;;;;;;;6.57;2.10;;;13.90;99.90;;;;;;5128824;27;20951;-67
2022/10/12 10:00:07;;;;;;;6.83;2.23;;;14.00;99.90;;;;;;5129108;27;20234;-68
2022/10/12 10:02:47;;;;;;;5.40;2.20;;;14.10;99.90;;;;;;5128944;27;20271;-68
2022/10/12 10:05:23;;;;;;;5.53;2.10;;;14.20;99.90;;;;;;5109805;27;20331;-68
2022/10/12 10:07:52;;;;;;;5.50;2.30;;;14.20;99.90;;;;;;5108740;28;20194;-68
2022/10/12 10:10:21;;;;;;;5.07;2.17;;;14.30;99.90;;;;;;5108402;28;20213;-68
2022/10/12 10:12:51;;;;;;;6.40;2.40;;;14.50;99.90;;;;;;5108393;28;20206;-68
2022/10/12 10:15:25;;;;;;;7.37;2.50;;;14.60;99.90;;;;;;5108522;28;20238;-68
2022/10/12 10:17:54;;;;;;;4.90;2.00;;;14.60;99.90;;;;;;5108418;28;20201;-68
2022/10/12 10:20:27;;;;;;;6.60;2.17;;;14.70;99.90;;;;;;5108365;28;20235;-68
2022/10/12 10:22:55;;;;;;;8.10;2.40;;;14.70;99.90;;;;;;5124798;27;20209;-68
2022/10/12 10:25:23;;;;;;;7.50;2.67;;;14.80;99.90;;;;;;5128955;27;20216;-68
2022/10/12 10:27:53;;;;;;;7.53;2.53;;;14.90;99.90;;;;;;5128458;27;20202;-68
2022/10/12 10:30:22;;;;;;;3.87;2.23;;;14.90;99.90;;;;;;5128836;27;20212;-68
2022/10/12 10:33:06;;;;;;;10.03;2.20;;;15.10;99.90;;;;;;5129236;27;20248;-68
2022/10/12 10:35:33;;;;;;;8.97;2.13;;;15.20;99.90;;;;;;5128221;27;20237;-68
2022/10/12 10:38:02;;;;;;;7.50;2.07;;;15.30;99.90;;;;;;5128634;27;20209;-68
2022/10/12 10:40:31;;;;;;;4.40;1.87;;;15.50;99.90;;;;;;5128706;27;20232;-68
2022/10/12 10:43:03;;;;;;;5.00;2.07;;;15.50;99.90;;;;;;5128706;27;20209;-68
2022/10/12 10:45:33;;;;;;;5.63;1.90;;;15.60;99.90;;;;;;5129039;27;20190;-68
2022/10/12 10:48:08;;;;;;;4.83;2.10;;;15.70;99.90;;;;;;5128046;27;20628;-68
2022/10/12 10:50:38;;;;;;;3.57;1.93;;;15.70;99.90;;;;;;5112062;27;20548;-68
2022/10/12 10:53:17;;;;;;;4.83;1.83;;;15.70;99.90;;;;;;5128618;27;20209;-68
2022/10/12 10:55:48;;;;;;;3.43;1.77;;;15.80;99.90;;;;;;5128535;27;20569;-68
2022/10/12 10:58:25;;;;;;;7.97;2.30;;;15.90;99.90;;;;;;5128470;27;20678;-68
2022/10/12 11:00:56;;;;;;;6.73;1.93;;;16.00;99.90;;;;;;5128250;27;20237;-68
2022/10/12 11:03:29;;;;;;;4.67;1.70;;;16.10;99.90;;;;;;5128427;27;20212;-68
2022/10/12 11:06:04;;;;;;;4.23;2.10;;;16.30;99.90;;;;;;5128127;27;20556;-68
2022/10/12 11:08:35;;;;;;;7.97;2.10;;;16.40;99.90;;;;;;5128500;27;20200;-68
2022/10/12 11:11:07;;;;;;;2.17;1.67;;;16.50;99.90;;;;;;5127944;27;20793;-68
2022/10/12 11:13:38;;;;;;;6.00;2.47;;;16.30;99.90;;;;;;5128418;27;20194;-68
2022/10/12 11:16:26;;;;;;;5.07;1.80;;;16.20;99.90;;;;;;5128221;27;20221;-68
2022/10/12 11:18:56;;;;;;;5.53;1.73;;;16.10;99.90;;;;;;5128385;27;20539;-68
2022/10/12 11:21:27;;;;;;;4.33;1.80;;;16.20;99.90;;;;;;5128265;27;20210;-68
2022/10/12 11:24:01;;;;;;;5.63;1.90;;;16.30;99.90;;;;;;5128426;27;20196;-68
2022/10/12 11:26:31;;;;;;;3.70;1.67;;;16.50;99.90;;;;;;5128147;27;20206;-68
2022/10/12 11:29:00;;;;;;;5.47;1.50;;;16.60;99.90;;;;;;5128040;27;20197;-69
2022/10/12 11:31:32;;;;;;;6.40;1.90;;;16.60;99.90;;;;;;5128366;27;20229;-68
2022/10/12 11:34:02;;;;;;;8.20;2.20;;;16.50;99.90;;;;;;5127968;27;20225;-69
2022/10/12 11:36:31;;;;;;;5.20;2.10;;;16.50;99.90;;;;;;5128069;27;20844;-68
2022/10/12 11:39:03;;;;;;;6.80;2.00;;;16.70;99.90;;;;;;5128090;27;20204;-68
2022/10/12 11:41:37;;;;;;;8.63;2.30;;;16.80;99.90;;;;;;5127725;27;20701;-69
2022/10/12 11:44:13;;;;;;;4.20;1.80;;;16.90;99.90;;;;;;5112356;27;20909;-68
2022/10/12 11:46:45;;;;;;;5.00;1.80;;;16.90;99.90;;;;;;5107449;28;20201;-69
2022/10/12 11:49:16;;;;;;;5.30;1.70;;;17.00;99.90;;;;;;5116571;28;20206;-69
2022/10/12 11:51:47;;;;;;;6.93;2.30;;;17.20;99.90;;;;;;5128007;27;20201;-68
2022/10/12 11:54:27;;;;;;;5.30;1.80;;;17.20;99.90;;;;;;5127722;27;20189;-69
2022/10/12 11:56:58;;;;;;;3.53;1.80;;;17.30;99.90;;;;;;5127497;27;20223;-69
2022/10/12 11:59:30;;;;;;;3.20;1.53;;;17.50;99.90;;;;;;5129405;27;20190;-68
2022/10/12 12:02:10;;;;;;;5.93;1.97;;;17.60;99.90;;;;;;5131480;27;20244;-68
2022/10/12 12:04:41;;;;;;;4.57;1.67;;;17.70;99.90;;;;;;5131808;27;20208;-68
2022/10/12 12:07:41;;;;;;;5.73;1.67;;;17.80;99.90;;;;;;5131569;27;20456;-68
2022/10/12 12:10:41;;;;;;;5.67;2.07;;;17.80;99.90;;;;;;5131445;27;20202;-68
2022/10/12 12:13:20;;;;;;;5.90;1.70;;;18.00;99.90;;;;;;5124447;27;20205;-69
2022/10/12 12:16:30;;;;;;;3.83;1.90;;;18.10;99.90;;;;;;5131270;27;20307;-68
2022/10/12 12:19:30;;;;;;;3.47;1.47;;;18.20;99.90;;;;;;5131758;27;20193;-68
2022/10/12 12:22:18;;;;;;;5.60;1.83;;;18.50;99.90;;;;;;5130973;27;20209;-68
2022/10/12 12:24:58;;;;;;;4.07;2.00;;;18.50;99.90;;;;;;5131106;27;20197;-68
2022/10/12 12:27:32;;;;;;;5.37;2.00;;;18.70;99.90;;;;;;5131046;27;20193;-69
2022/10/12 12:30:01;;;;;;;8.00;1.87;;;18.70;99.90;;;;;;5131144;27;20200;-69
2022/10/12 12:32:47;;;;;;;4.97;1.60;;;18.70;99.90;;;;;;5130848;27;20212;-68
2022/10/12 12:35:21;;;;;;;6.83;2.07;;;18.70;99.90;;;;;;5130749;27;20229;-68
2022/10/12 12:37:49;;;;;;;3.67;1.70;;;18.60;99.90;;;;;;5131132;27;20201;-69
2022/10/12 12:40:22;;;;;;;5.63;1.87;;;18.60;99.80;;;;;;5116299;27;20206;-68
2022/10/12 12:42:49;;;;;;;2.67;1.73;;;18.50;99.80;;;;;;5110570;28;20190;-69
2022/10/12 12:45:40;;;;;;;4.10;1.67;;;18.60;99.90;;;;;;5110516;28;20214;-69
2022/10/12 12:48:10;;;;;;;5.47;1.97;;;18.70;99.90;;;;;;5110238;27;20680;-69
2022/10/12 12:50:40;;;;;;;4.13;1.70;;;18.90;99.90;;;;;;5130894;27;20278;-68
2022/10/12 12:53:14;;;;;;;5.40;1.90;;;19.10;99.90;;;;;;5130886;27;20197;-68
2022/10/12 12:55:59;;;;;;;5.47;1.80;;;19.10;99.90;;;;;;5125694;27;20209;-68
2022/10/12 12:58:51;;;;;;;8.30;2.07;;;19.00;99.30;;;;;;5126827;27;20198;-68
2022/10/12 13:01:43;;;;;;;5.30;1.85;;;19.20;99.10;;;;;;5124390;27;20237;-67
2022/10/12 13:04:35;;;;;;;5.33;1.70;;;19.30;99.60;;;;;;5129632;27;20199;-67
2022/10/12 13:07:27;;;;;;;6.03;2.10;;;19.40;99.20;;;;;;5130272;27;20617;-69
2022/10/12 13:10:25;;;;;;;5.53;1.93;;;19.50;98.90;;;;;;5127083;27;20731;-68